Rankings de siempre
Mejores tiempos personales válidos de equipo a través de todos los eventos y temporadas. Cada equipo aparece una vez por división.
Busca por nombre y abre la página donde está clasificado este récord de división.
137,494 equipos clasificados
| Pos. | Pos. AG | Equipo | Nacionalidad | Categoría de edad | TiempoMejor tiempo | Diferencia |
|---|---|---|---|---|---|---|
| 133826 | #42320 | Michelle Coon & Kaitlyn PaceUSA · W 30-34 · AG #42320 | USA | W 30-34 | 2:02:44 | +69:23 |
| 133827 | #42321 | Lisa Edwards-Lee & Toni PickeringGBR · W 30-34 · AG #42321 | GBR | W 30-34 | 2:02:44 | +69:23 |
| 133828 | #19076 | Angela Pallett & Lauren GauntGBR · W 40-44 · AG #19076 | GBR | W 40-44 | 2:02:44 | +69:23 |
| 133829 | -- | Yani Grimon & Giron CrisESP · W | ESP | -- | 2:02:44 | +69:23 |
| 133830 | -- | Jiazhi Li & Xueyao QiuCHN · W WU29 | CHN | W WU29 | 2:02:44 | +69:23 |
| 133831 | #10974 | Yulienn Lazzaric & Paulina GomezMEX · W 16-24 · AG #10974 | MEX | W 16-24 | 2:02:44 | +69:23 |
| 133832 | #10975 | Rhiannon Day & Filipa Santos De AzevedoW 16-24 · AG #10975 | -- | W 16-24 | 2:02:45 | +69:24 |
| 133833 | #19077 | Thelma De Beer & Lourine BothaRSA · W 40-44 · AG #19077 | RSA | W 40-44 | 2:02:45 | +69:24 |
| 133834 | #42322 | Alanna Maclaughlan & Katie BennettGBR · W 30-34 · AG #42322 | GBR | W 30-34 | 2:02:45 | +69:24 |
| 133835 | #10976 | Andrea Garza & Julia Nohemi Guzmán MaldonadoMEX · W 16-24 · AG #10976 | MEX | W 16-24 | 2:02:45 | +69:24 |
| 133836 | #19829 | Galilea Salinas & Adriana VargasMEX · W 25-29 · AG #19829 | MEX | W 25-29 | 2:02:45 | +69:24 |
| 133837 | #14638 | 倩瑜 翁 & 玥 宋CHN · W 35-39 · AG #14638 | CHN | W 35-39 | 2:02:46 | +69:25 |
| 133838 | -- | Helena Jones & Lisa BiancoUSA · W WU29 | USA | W WU29 | 2:02:46 | +69:25 |
| 133839 | #19078 | Titima Wathern & Kanjana ArjharnTHA · W 40-44 · AG #19078 | THA | W 40-44 | 2:02:46 | +69:25 |
| 133840 | -- | Katrina Camiling & Georgia ModestrouAUS · W WU29 | AUS | W WU29 | 2:02:47 | +69:26 |
| 133841 | #19079 | Angie Nadon & Kristin LedouxCAN · W 40-44 · AG #19079 | CAN | W 40-44 | 2:02:47 | +69:26 |
| 133842 | #42323 | Worawan Viratkaphan & Hsuanling FanW 30-34 · AG #42323 | -- | W 30-34 | 2:02:47 | +69:26 |
| 133843 | #42324 | Benjawan Naulta & Duangkamon ThongtaseeTHA · W 30-34 · AG #42324 | THA | W 30-34 | 2:02:47 | +69:26 |
| 133844 | #19080 | Sukanda Puchongpraves & Piraya ChaiteerabhunkulTHA · W 40-44 · AG #19080 | THA | W 40-44 | 2:02:47 | +69:26 |
| 133845 | #14639 | Shamira Hamilton & Kaela BourneUSA · W 35-39 · AG #14639 | USA | W 35-39 | 2:02:47 | +69:26 |
| 133846 | #14640 | Lourdes Rivera & Lourdes SeguraMEX · W 35-39 · AG #14640 | MEX | W 35-39 | 2:02:47 | +69:26 |
| 133847 | #19830 | Chloe Wang & Charlotte LimSIN · W 25-29 · AG #19830 | SIN | W 25-29 | 2:02:47 | +69:26 |
| 133848 | #19831 | Naika Belizaire & Shya GarrettUSA · W 25-29 · AG #19831 | USA | W 25-29 | 2:02:47 | +69:26 |
| 133849 | #42326 | Louise Gainey & Sheridan HuntAUS · W 30-34 · AG #42326 | AUS | W 30-34 | 2:02:48 | +69:27 |
| 133850 | #42325 | Devan Cupid & Jayla CupidUSA · W 30-34 · AG #42325 | USA | W 30-34 | 2:02:48 | +69:27 |
Página 5,354 de 5,500